createdAt,value
2023-04-07T03:00:40.655Z,99.90
2023-04-07T03:03:15.002Z,99.90
2023-04-07T03:05:49.147Z,99.90
2023-04-07T03:08:16.155Z,99.90
2023-04-07T03:10:43.938Z,99.90
2023-04-07T03:13:16.482Z,99.90
2023-04-07T03:15:45.756Z,99.90
2023-04-07T03:18:13.882Z,99.90
2023-04-07T03:20:44.519Z,99.90
2023-04-07T03:23:13.010Z,99.90
2023-04-07T03:25:40.747Z,99.90
2023-04-07T03:28:08.873Z,99.90
2023-04-07T03:30:38.670Z,99.90
2023-04-07T03:33:07.637Z,99.90
2023-04-07T03:35:34.532Z,99.90
2023-04-07T03:38:01.441Z,99.90
2023-04-07T03:40:28.535Z,99.90
2023-04-07T03:42:55.587Z,99.90
2023-04-07T03:45:22.464Z,99.90
2023-04-07T03:47:52.582Z,99.90
2023-04-07T03:50:22.483Z,99.90
2023-04-07T03:53:00.437Z,99.90
2023-04-07T03:55:30.661Z,99.90
2023-04-07T03:58:02.449Z,99.90
2023-04-07T04:00:33.641Z,99.90
2023-04-07T04:03:10.809Z,99.90
2023-04-07T04:05:46.379Z,99.90
2023-04-07T04:08:18.349Z,99.90
2023-04-07T04:10:45.451Z,99.90
2023-04-07T04:13:13.030Z,99.90
2023-04-07T04:15:41.544Z,99.90
2023-04-07T04:18:13.939Z,99.90
2023-04-07T04:20:40.818Z,99.90
2023-04-07T04:23:09.370Z,99.90
2023-04-07T04:25:39.497Z,99.90
2023-04-07T04:28:08.214Z,99.90
2023-04-07T04:30:35.799Z,99.90
2023-04-07T04:33:04.237Z,99.90
2023-04-07T04:35:37.289Z,99.90
2023-04-07T04:38:11.604Z,99.90
2023-04-07T04:40:43.087Z,99.90
2023-04-07T04:43:10.325Z,99.90
2023-04-07T04:45:40.246Z,99.90
2023-04-07T04:48:11.633Z,99.90
2023-04-07T04:50:39.212Z,99.90
2023-04-07T04:53:12.678Z,99.90
2023-04-07T04:55:52.234Z,99.90
2023-04-07T04:58:26.505Z,99.90
2023-04-07T05:01:00.355Z,99.90
2023-04-07T05:03:37.181Z,99.90
2023-04-07T05:06:11.457Z,99.90
2023-04-07T05:08:42.003Z,99.90
2023-04-07T05:11:09.683Z,99.90
2023-04-07T05:13:37.685Z,99.90
2023-04-07T05:16:06.584Z,99.90
2023-04-07T05:18:35.070Z,99.90
2023-04-07T05:21:02.938Z,99.90
2023-04-07T05:23:31.592Z,99.90
2023-04-07T05:25:59.949Z,99.90
2023-04-07T05:28:27.099Z,99.90
2023-04-07T05:30:56.770Z,99.90
2023-04-07T05:33:28.472Z,99.90
2023-04-07T05:35:55.801Z,99.90
2023-04-07T05:38:22.811Z,99.90
2023-04-07T05:40:51.395Z,99.90
2023-04-07T05:43:25.260Z,99.90
2023-04-07T05:45:52.229Z,99.90
2023-04-07T05:48:19.296Z,99.90
2023-04-07T05:50:47.524Z,99.90
2023-04-07T05:53:17.700Z,99.90
2023-04-07T05:55:44.667Z,99.90
2023-04-07T05:58:19.014Z,99.90
2023-04-07T06:00:51.669Z,99.90
2023-04-07T06:03:19.300Z,99.90
2023-04-07T06:06:01.839Z,99.90
2023-04-07T06:08:29.183Z,99.90
2023-04-07T06:10:56.514Z,99.90
2023-04-07T06:13:23.374Z,99.90
2023-04-07T06:15:51.549Z,99.90
2023-04-07T06:18:18.398Z,99.90
2023-04-07T06:20:45.253Z,99.90
2023-04-07T06:23:12.170Z,99.90
2023-04-07T06:25:39.098Z,99.90
2023-04-07T06:28:06.283Z,99.90
2023-04-07T06:30:34.003Z,99.90
2023-04-07T06:33:02.373Z,99.90
2023-04-07T06:35:29.372Z,99.90
2023-04-07T06:37:56.899Z,99.90
2023-04-07T06:40:23.753Z,99.90
2023-04-07T06:42:51.578Z,99.90
2023-04-07T06:45:27.017Z,99.90
2023-04-07T06:47:53.984Z,99.90
2023-04-07T06:50:22.431Z,99.90
2023-04-07T06:52:49.319Z,99.90
2023-04-07T06:55:16.340Z,99.90
2023-04-07T06:57:43.636Z,99.90
2023-04-07T07:00:11.897Z,99.90
2023-04-07T07:02:38.893Z,99.90
2023-04-07T07:05:06.990Z,99.90
2023-04-07T07:07:35.238Z,99.90
2023-04-07T07:10:02.191Z,99.90
2023-04-07T07:12:29.129Z,99.90
2023-04-07T07:14:55.995Z,99.90
2023-04-07T07:17:23.071Z,99.90
2023-04-07T07:19:49.930Z,99.90
2023-04-07T07:22:16.822Z,99.90
2023-04-07T07:24:45.290Z,99.90
2023-04-07T07:27:12.145Z,99.90
2023-04-07T07:29:39.074Z,99.90
2023-04-07T07:32:06.256Z,99.90
2023-04-07T07:34:33.318Z,99.90
2023-04-07T07:37:00.423Z,99.90
2023-04-07T07:39:28.104Z,99.90
2023-04-07T07:41:56.620Z,99.90
2023-04-07T07:44:23.757Z,99.90
2023-04-07T07:46:51.357Z,99.90
2023-04-07T07:49:18.377Z,99.90
2023-04-07T07:51:46.634Z,99.90
2023-04-07T07:54:13.832Z,99.90
2023-04-07T07:56:40.936Z,99.90
2023-04-07T07:59:09.113Z,99.90
2023-04-07T08:01:36.272Z,99.90
2023-04-07T08:04:03.866Z,99.90
2023-04-07T08:06:31.512Z,99.90
2023-04-07T08:08:58.829Z,99.90
2023-04-07T08:11:25.957Z,99.90
2023-04-07T08:13:54.006Z,99.90
2023-04-07T08:16:23.691Z,99.90
2023-04-07T08:18:50.679Z,99.90
2023-04-07T08:21:17.606Z,99.90
2023-04-07T08:23:44.582Z,99.90
2023-04-07T08:26:11.406Z,99.90
2023-04-07T08:28:39.413Z,99.90
2023-04-07T08:31:07.128Z,99.90
2023-04-07T08:33:35.376Z,99.90
2023-04-07T08:36:02.274Z,99.90
2023-04-07T08:38:29.168Z,99.90
2023-04-07T08:41:02.830Z,99.90
2023-04-07T08:43:30.272Z,99.90
2023-04-07T08:45:58.150Z,99.90
2023-04-07T08:48:30.278Z,99.90
2023-04-07T08:51:00.156Z,99.90
2023-04-07T08:53:35.757Z,99.90
2023-04-07T08:56:03.091Z,98.80
2023-04-07T08:58:30.855Z,97.80
2023-04-07T09:00:58.048Z,94.60
2023-04-07T09:03:26.946Z,90.40
2023-04-07T09:05:56.299Z,85.90
2023-04-07T09:08:24.534Z,77.70
2023-04-07T09:10:51.576Z,75.50
2023-04-07T09:13:18.575Z,72.50
2023-04-07T09:15:46.288Z,70.20
2023-04-07T09:18:14.751Z,69.20
2023-04-07T09:20:58.569Z,68.10
2023-04-07T09:23:31.741Z,68.20
2023-04-07T09:26:00.049Z,69.90
2023-04-07T09:28:40.703Z,71.40
2023-04-07T09:31:07.565Z,73.40
2023-04-07T09:33:36.505Z,76.40
2023-04-07T09:36:03.856Z,78.90
2023-04-07T09:38:36.331Z,80.20
2023-04-07T09:41:08.206Z,81.70
2023-04-07T09:43:37.676Z,83.60
2023-04-07T09:46:13.014Z,84.40
2023-04-07T09:48:40.621Z,85.30
2023-04-07T09:51:09.589Z,85.90
2023-04-07T09:53:47.577Z,85.80
2023-04-07T09:56:16.529Z,86.70
2023-04-07T09:58:46.404Z,87.70
2023-04-07T10:01:14.571Z,87.40
2023-04-07T10:03:41.604Z,86.20
2023-04-07T10:06:08.593Z,83.80
2023-04-07T10:08:37.789Z,82.70
2023-04-07T10:11:06.671Z,82.40
2023-04-07T10:13:34.976Z,81.70
2023-04-07T10:16:04.571Z,80.20
2023-04-07T10:18:33.101Z,80.40
2023-04-07T10:21:02.135Z,79.60
2023-04-07T10:23:44.871Z,79.90
2023-04-07T10:26:16.517Z,80.10
2023-04-07T10:28:47.993Z,79.20
2023-04-07T10:31:15.576Z,77.70
2023-04-07T10:33:49.927Z,77.70
2023-04-07T10:36:18.564Z,77.90
2023-04-07T10:39:18.998Z,78.70
2023-04-07T10:41:47.319Z,78.80
2023-04-07T10:44:55.689Z,78.80
2023-04-07T10:47:22.953Z,78.50
2023-04-07T10:50:15.729Z,78.20
2023-04-07T10:52:43.215Z,75.80
2023-04-07T10:55:33.439Z,76.70
2023-04-07T10:58:22.713Z,77.90
2023-04-07T11:01:19.669Z,79.50
2023-04-07T11:03:59.185Z,81.80
2023-04-07T11:06:27.183Z,87.00
2023-04-07T11:08:54.240Z,89.50
2023-04-07T11:11:39.950Z,90.50
2023-04-07T11:14:08.537Z,90.90
2023-04-07T11:16:43.348Z,91.90
2023-04-07T11:19:10.573Z,92.90
2023-04-07T11:21:37.465Z,93.40
2023-04-07T11:24:04.616Z,92.50
2023-04-07T11:26:38.243Z,92.70
2023-04-07T11:29:05.249Z,93.50
2023-04-07T11:31:33.896Z,93.80
2023-04-07T11:34:02.338Z,93.90
2023-04-07T11:36:31.121Z,94.00
2023-04-07T11:38:58.693Z,94.30
2023-04-07T11:41:27.658Z,94.70
2023-04-07T11:44:08.644Z,94.70
2023-04-07T11:46:37.773Z,95.30
2023-04-07T11:49:12.558Z,96.70
2023-04-07T11:51:39.712Z,97.30
2023-04-07T11:54:06.854Z,98.00
2023-04-07T11:56:44.148Z,98.20
2023-04-07T11:59:22.880Z,98.90
2023-04-07T12:01:55.333Z,99.00
2023-04-07T12:04:24.252Z,99.60
2023-04-07T12:06:52.741Z,99.90
2023-04-07T12:09:28.818Z,99.90
2023-04-07T12:11:57.690Z,99.90
2023-04-07T12:14:25.279Z,99.90
2023-04-07T12:16:56.509Z,99.90
2023-04-07T12:19:24.496Z,99.90
2023-04-07T12:21:52.355Z,99.90
2023-04-07T12:24:19.640Z,99.90
2023-04-07T12:26:48.163Z,99.90
2023-04-07T12:29:15.562Z,99.90
2023-04-07T12:31:43.884Z,99.90
2023-04-07T12:34:12.575Z,99.90
2023-04-07T12:36:39.546Z,99.90
2023-04-07T12:39:06.430Z,99.90
2023-04-07T12:41:33.675Z,99.90
2023-04-07T12:44:00.539Z,99.90
2023-04-07T12:46:27.514Z,99.90
2023-04-07T12:48:54.543Z,99.90
2023-04-07T12:51:23.004Z,99.90
2023-04-07T12:53:50.592Z,99.90
2023-04-07T12:56:17.738Z,99.90
2023-04-07T12:58:44.663Z,99.90
2023-04-07T13:01:11.854Z,99.90
2023-04-07T13:03:39.000Z,99.90
2023-04-07T13:06:06.201Z,99.90
2023-04-07T13:08:34.508Z,99.90
2023-04-07T13:11:01.454Z,99.90
2023-04-07T13:13:28.388Z,99.90
2023-04-07T13:15:55.423Z,99.90
2023-04-07T13:18:22.351Z,99.90
2023-04-07T13:21:03.607Z,99.90
2023-04-07T13:23:43.303Z,99.90
2023-04-07T13:26:11.120Z,99.90
2023-04-07T13:28:38.727Z,99.90
2023-04-07T13:31:05.808Z,99.90
2023-04-07T13:33:32.713Z,99.90
2023-04-07T13:35:59.595Z,99.90
2023-04-07T13:38:26.604Z,99.90
2023-04-07T13:40:54.825Z,99.90
2023-04-07T13:43:21.670Z,99.90
2023-04-07T13:45:49.142Z,99.90
2023-04-07T13:48:16.110Z,99.90
2023-04-07T13:50:42.990Z,99.90
2023-04-07T13:53:09.942Z,99.90
2023-04-07T13:55:36.871Z,99.90
2023-04-07T13:58:05.056Z,99.90
2023-04-07T14:00:32.191Z,99.90
2023-04-07T14:02:59.302Z,99.90
2023-04-07T14:05:26.463Z,99.90
2023-04-07T14:07:54.396Z,99.90
2023-04-07T14:10:21.728Z,99.90
2023-04-07T14:12:48.594Z,99.90
2023-04-07T14:15:18.353Z,99.90
2023-04-07T14:17:45.471Z,99.90
2023-04-07T14:20:12.473Z,99.90
2023-04-07T14:22:39.406Z,99.90
2023-04-07T14:25:06.966Z,99.90
2023-04-07T14:27:33.843Z,99.90
2023-04-07T14:30:01.192Z,99.90
2023-04-07T14:32:29.891Z,99.90
2023-04-07T14:34:59.037Z,99.90
2023-04-07T14:37:26.585Z,99.90
2023-04-07T14:40:02.462Z,99.90
2023-04-07T14:42:29.915Z,99.90
2023-04-07T14:44:56.828Z,99.90
2023-04-07T14:47:24.085Z,99.90
2023-04-07T14:49:53.555Z,99.90
2023-04-07T14:52:22.068Z,99.90
2023-04-07T14:54:49.142Z,99.90
2023-04-07T14:57:16.679Z,99.90
2023-04-07T14:59:43.911Z,99.90
2023-04-07T15:02:11.160Z,99.90
2023-04-07T15:04:38.599Z,99.90
2023-04-07T15:07:06.942Z,99.90
2023-04-07T15:09:33.912Z,99.90
2023-04-07T15:12:00.947Z,99.90
2023-04-07T15:14:27.952Z,99.90
2023-04-07T15:16:54.810Z,99.90
2023-04-07T15:19:21.708Z,99.90
2023-04-07T15:21:48.586Z,99.90
2023-04-07T15:24:16.882Z,99.90
2023-04-07T15:26:43.828Z,99.90
2023-04-07T15:29:10.902Z,99.90
2023-04-07T15:31:37.798Z,99.90
2023-04-07T15:34:05.336Z,99.90
2023-04-07T15:36:32.357Z,99.90
2023-04-07T15:39:04.075Z,99.90
2023-04-07T15:41:32.889Z,99.90
2023-04-07T15:44:00.527Z,99.90
2023-04-07T15:46:27.591Z,99.90
2023-04-07T15:48:54.479Z,99.90
2023-04-07T15:51:21.559Z,99.90
2023-04-07T15:53:48.720Z,99.90
2023-04-07T15:56:15.730Z,99.90
2023-04-07T15:58:45.397Z,99.90
2023-04-07T16:01:12.520Z,99.90
2023-04-07T16:03:39.582Z,99.90
2023-04-07T16:06:06.575Z,99.90
2023-04-07T16:08:33.505Z,99.90
2023-04-07T16:11:00.756Z,99.90
2023-04-07T16:13:27.662Z,99.90
2023-04-07T16:15:57.346Z,99.90
2023-04-07T16:18:24.433Z,99.90
2023-04-07T16:20:51.317Z,99.90
2023-04-07T16:23:18.232Z,99.90
2023-04-07T16:25:45.478Z,99.90
2023-04-07T16:28:12.368Z,99.90
2023-04-07T16:30:40.024Z,99.90
2023-04-07T16:33:08.447Z,99.90
2023-04-07T16:35:35.512Z,99.90
2023-04-07T16:38:04.036Z,99.90
2023-04-07T16:40:31.077Z,99.90
2023-04-07T16:42:58.026Z,99.90
2023-04-07T16:45:24.928Z,99.90
2023-04-07T16:47:51.881Z,99.90
2023-04-07T16:50:20.472Z,99.90
2023-04-07T16:52:47.864Z,99.90
2023-04-07T16:55:14.732Z,99.90
2023-04-07T16:57:41.687Z,99.90
2023-04-07T17:00:09.378Z,99.90
2023-04-07T17:02:36.486Z,99.90
2023-04-07T17:05:03.767Z,99.90
2023-04-07T17:07:31.974Z,99.90
2023-04-07T17:09:58.981Z,99.90
2023-04-07T17:12:26.333Z,99.90
2023-04-07T17:14:53.260Z,99.90
2023-04-07T17:17:20.428Z,99.90
2023-04-07T17:19:47.301Z,99.90
2023-04-07T17:22:14.251Z,99.90
2023-04-07T17:24:42.451Z,99.90
2023-04-07T17:27:09.360Z,99.90
2023-04-07T17:29:36.342Z,99.90
2023-04-07T17:32:03.210Z,99.90
2023-04-07T17:34:30.101Z,99.90
2023-04-07T17:36:56.905Z,99.90
2023-04-07T17:39:23.694Z,99.90
2023-04-07T17:41:51.852Z,99.90
2023-04-07T17:44:18.778Z,99.90
2023-04-07T17:46:45.913Z,99.90
2023-04-07T17:49:12.854Z,99.90
2023-04-07T17:51:39.763Z,99.90
2023-04-07T17:54:06.973Z,99.90
2023-04-07T17:56:33.981Z,99.90
2023-04-07T17:59:02.292Z,99.90
2023-04-07T18:01:29.229Z,99.90
2023-04-07T18:03:56.212Z,99.90
2023-04-07T18:06:23.412Z,99.90
2023-04-07T18:08:50.430Z,99.90
2023-04-07T18:11:18.634Z,99.90
2023-04-07T18:13:45.513Z,99.90
2023-04-07T18:16:18.121Z,99.90
2023-04-07T18:18:47.685Z,99.90
2023-04-07T18:21:14.682Z,99.90
2023-04-07T18:23:41.569Z,99.90
2023-04-07T18:26:08.496Z,99.90
2023-04-07T18:28:35.504Z,99.90
2023-04-07T18:31:04.782Z,99.90
2023-04-07T18:33:33.388Z,99.90
2023-04-07T18:36:02.444Z,99.90
2023-04-07T18:38:29.493Z,99.90
2023-04-07T18:40:56.501Z,99.90
2023-04-07T18:43:23.759Z,99.90
2023-04-07T18:45:52.568Z,99.90
2023-04-07T18:48:19.638Z,99.90
2023-04-07T18:50:52.042Z,99.90
2023-04-07T18:53:19.225Z,99.90
2023-04-07T18:55:46.267Z,99.90
2023-04-07T18:58:14.482Z,99.90
2023-04-07T19:00:41.742Z,99.90
2023-04-07T19:03:09.033Z,99.90
2023-04-07T19:05:38.776Z,99.90
2023-04-07T19:08:07.989Z,99.90
2023-04-07T19:10:35.323Z,99.90
2023-04-07T19:13:02.287Z,99.90
2023-04-07T19:15:33.990Z,99.90
2023-04-07T19:18:02.222Z,99.90
2023-04-07T19:20:33.766Z,99.90
2023-04-07T19:23:01.745Z,99.90
2023-04-07T19:25:31.162Z,99.90
2023-04-07T19:27:58.754Z,99.90
2023-04-07T19:30:25.844Z,99.90
2023-04-07T19:32:52.866Z,99.90
2023-04-07T19:35:19.953Z,99.90
2023-04-07T19:37:48.175Z,99.90
2023-04-07T19:40:15.650Z,99.90
2023-04-07T19:42:43.873Z,99.90
2023-04-07T19:45:11.394Z,99.90
2023-04-07T19:47:39.041Z,99.90
2023-04-07T19:50:07.263Z,99.90
2023-04-07T19:52:34.311Z,99.90
2023-04-07T19:55:02.634Z,99.90
2023-04-07T19:57:31.115Z,99.90
2023-04-07T19:59:59.436Z,99.90
2023-04-07T20:02:26.723Z,99.90
2023-04-07T20:04:53.771Z,99.90
2023-04-07T20:07:21.786Z,99.90
2023-04-07T20:09:51.337Z,99.90
2023-04-07T20:12:18.207Z,99.90
2023-04-07T20:14:45.278Z,99.90
2023-04-07T20:17:13.436Z,99.90
2023-04-07T20:19:40.717Z,99.90
2023-04-07T20:22:07.707Z,99.90
2023-04-07T20:24:34.969Z,99.90
2023-04-07T20:27:01.930Z,99.90
2023-04-07T20:29:28.835Z,99.90
2023-04-07T20:31:55.663Z,99.90
2023-04-07T20:34:23.871Z,99.90
2023-04-07T20:36:50.916Z,99.90
2023-04-07T20:39:17.849Z,99.90
2023-04-07T20:41:45.550Z,99.90
2023-04-07T20:44:12.422Z,99.90
2023-04-07T20:46:39.385Z,99.90
2023-04-07T20:49:07.777Z,99.90
2023-04-07T20:51:36.683Z,99.90
2023-04-07T20:54:03.953Z,99.90
2023-04-07T20:56:31.706Z,99.90
2023-04-07T20:58:58.648Z,99.90
2023-04-07T21:01:25.657Z,99.90
2023-04-07T21:03:53.916Z,99.90
2023-04-07T21:06:21.365Z,99.90
2023-04-07T21:08:49.984Z,99.90
2023-04-07T21:11:17.002Z,99.90
2023-04-07T21:13:43.964Z,99.90
2023-04-07T21:16:11.421Z,99.90
2023-04-07T21:18:38.385Z,99.90
2023-04-07T21:21:08.198Z,99.90
2023-04-07T21:23:35.382Z,99.90
2023-04-07T21:26:03.973Z,99.90
2023-04-07T21:28:30.960Z,99.90
2023-04-07T21:30:58.176Z,99.90
2023-04-07T21:33:25.253Z,99.90
2023-04-07T21:35:52.505Z,99.90
2023-04-07T21:38:19.392Z,99.90
2023-04-07T21:40:46.260Z,99.90
2023-04-07T21:43:14.551Z,99.90
2023-04-07T21:45:41.417Z,99.90
2023-04-07T21:48:08.309Z,99.90
2023-04-07T21:50:36.842Z,99.90
2023-04-07T21:53:03.912Z,99.90
2023-04-07T21:55:30.907Z,99.90
2023-04-07T21:57:58.176Z,99.90
2023-04-07T22:00:27.062Z,99.90
2023-04-07T22:02:54.669Z,99.90
2023-04-07T22:05:21.954Z,99.90
2023-04-07T22:07:49.227Z,99.90
2023-04-07T22:10:16.416Z,99.90
2023-04-07T22:12:43.325Z,99.90
2023-04-07T22:15:12.093Z,99.90
2023-04-07T22:17:40.706Z,99.90
2023-04-07T22:20:09.459Z,99.90
2023-04-07T22:22:36.353Z,99.90
2023-04-07T22:25:03.447Z,99.90
2023-04-07T22:27:30.892Z,99.90
2023-04-07T22:29:57.818Z,99.90
2023-04-07T22:32:24.769Z,99.90
2023-04-07T22:34:53.089Z,99.90
2023-04-07T22:37:19.930Z,99.90
2023-04-07T22:39:46.938Z,99.90
2023-04-07T22:42:13.922Z,99.90
2023-04-07T22:44:40.978Z,99.90
2023-04-07T22:47:08.002Z,99.90
2023-04-07T22:49:34.939Z,99.90
2023-04-07T22:52:03.506Z,99.90
2023-04-07T22:54:30.613Z,99.90
2023-04-07T22:56:57.507Z,99.90
2023-04-07T22:59:24.612Z,99.90
2023-04-07T23:01:51.584Z,99.90
2023-04-07T23:04:18.479Z,99.90
